首页
METAR-TAF:

METAR-TAF

机场 :

Fort St. John, 不列颠哥伦比亚, 加拿大

纬度: 56-14N, 经度: 120-44W, 海拔: 695米

当前天气观测

该预报发布于1小时和18分钟前的03:00 UTC
风速15节,风向西南
温度 2°C
湿度 64%
气压 1001 hPa
能見度: 24.1公里
少量云层高于8000英尺
多云层高于22000英尺

METAR: CYXJ 220300Z 22015KT 15SM FEW080 BKN220 02/M04 A2957 RMK AC2CI3 SLP046

时间: 21:18 (04:18 UTC)

预报

该预报发布于3小时和40分钟前的00:38 UTC
预报有效从22日的 01点(UTC)到 22日的 13点(UTC)
风速18节,风向西南,有时为28节阵风
能見度: 10公里
散云层高于8000英尺
多云层高于20000英尺
短暂存在
从 22日的 01点(UTC)到 22日的 05点(UTC)
风速25节,风向西南,有时为35节阵风
多云层高于8000英尺
从 22日的 0500点(UTC)
风速15节,风向西南,有时为25节阵风
能見度: 10公里
散云层高于8000英尺
散云层高于12000英尺
短暂存在
从 22日的 05点(UTC)到 22日的 13点(UTC)
多云层高于6000英尺
成为
从 22日的 07点(UTC)到 22日的 09点(UTC)
风速18节,风向西转西南,有时为28节阵风

TAF: CYXJ 220038Z 2201/2213 22018G28KT P6SM SCT080 BKN200 TEMPO 2201/2205 22025G35KT BKN080 FM220500 23015G25KT P6SM SCT080 SCT120 TEMPO 2205/2213 BKN060 BECMG 2207/2209 24018G28KT RMK NXT FCST BY 220700Z

超过4000个机场的气象观测和天气预报(METAR&TAF报告)。

可查询的气象台以黄色和红色小点在地图上表示。

将鼠标移到小点上方,可查看气象台名称。

然后点击查看天气观测和预报。

如需切换地图:点击带黑十字的绿色按钮放大地图;点击带横线的绿色按钮缩小地图;或者点击绿色箭头查看邻近地区的地图。


METAR-TAF: